createdAt,value
2019-05-06T00:02:13.804Z,18.30
2019-05-06T00:04:44.712Z,20.93
2019-05-06T00:07:13.839Z,14.13
2019-05-06T00:09:44.177Z,16.93
2019-05-06T00:12:14.505Z,13.50
2019-05-06T00:14:43.779Z,16.90
2019-05-06T00:17:14.542Z,18.40
2019-05-06T00:19:44.753Z,13.70
2019-05-06T00:22:14.246Z,16.83
2019-05-06T00:24:44.931Z,15.87
2019-05-06T00:27:15.595Z,12.63
2019-05-06T00:29:46.877Z,20.33
2019-05-06T00:32:15.335Z,22.73
2019-05-06T00:34:44.375Z,10.27
2019-05-06T00:37:14.629Z,12.13
2019-05-06T00:39:45.422Z,10.07
2019-05-06T00:42:16.079Z,14.37
2019-05-06T00:44:45.160Z,14.53
2019-05-06T00:47:14.185Z,15.97
2019-05-06T00:49:43.623Z,20.03
2019-05-06T00:52:13.643Z,18.27
2019-05-06T00:54:43.659Z,15.73
2019-05-06T00:57:13.998Z,16.33
2019-05-06T00:59:44.128Z,17.47
2019-05-06T01:02:14.071Z,23.83
2019-05-06T01:04:44.626Z,32.13
2019-05-06T01:07:14.038Z,26.17
2019-05-06T01:09:43.919Z,25.53
2019-05-06T01:12:14.358Z,20.03
2019-05-06T01:14:45.247Z,18.90
2019-05-06T01:17:14.382Z,15.97
2019-05-06T01:19:45.690Z,18.57
2019-05-06T01:22:14.107Z,14.87
2019-05-06T01:24:43.919Z,12.40
2019-05-06T01:27:14.519Z,15.60
2019-05-06T01:29:44.141Z,8.33
2019-05-06T01:32:13.941Z,15.90
2019-05-06T01:34:44.643Z,10.20
2019-05-06T01:37:14.248Z,21.57
2019-05-06T01:39:45.034Z,19.60
2019-05-06T01:42:15.706Z,10.27
2019-05-06T01:44:44.899Z,13.93
2019-05-06T01:47:14.552Z,8.80
2019-05-06T01:49:44.234Z,9.93
2019-05-06T01:52:14.717Z,9.27
2019-05-06T01:54:43.754Z,10.80
2019-05-06T01:57:13.708Z,12.43
2019-05-06T01:59:44.359Z,12.03
2019-05-06T02:02:14.371Z,23.30
2019-05-06T02:04:44.416Z,14.87
2019-05-06T02:07:14.463Z,23.80
2019-05-06T02:09:44.778Z,33.27
2019-05-06T02:12:13.996Z,32.17
2019-05-06T02:14:43.655Z,60.83
2019-05-06T02:17:14.400Z,108.53
2019-05-06T02:19:43.917Z,167.30
2019-05-06T02:22:14.538Z,200.23
2019-05-06T02:24:45.218Z,219.17
2019-05-06T02:27:14.438Z,279.30
2019-05-06T02:29:45.128Z,340.30
2019-05-06T02:32:25.523Z,296.13
2019-05-06T02:34:48.133Z,319.63
2019-05-06T02:37:18.831Z,342.43
2019-05-06T02:39:47.880Z,339.97
2019-05-06T02:42:16.924Z,303.10
2019-05-06T02:44:46.003Z,414.33
2019-05-06T02:47:16.762Z,395.17
2019-05-06T02:49:47.427Z,381.97
2019-05-06T02:52:16.452Z,460.83
2019-05-06T02:54:45.471Z,525.37
2019-05-06T02:57:14.501Z,531.93
2019-05-06T02:59:44.146Z,556.47
2019-05-06T03:02:14.343Z,552.33
2019-05-06T03:04:43.827Z,537.97
2019-05-06T03:07:14.468Z,517.53
2019-05-06T03:09:44.549Z,543.40
2019-05-06T03:12:14.831Z,553.50
2019-05-06T03:14:43.956Z,604.17
2019-05-06T03:17:14.177Z,603.57
2019-05-06T03:19:46.030Z,606.53
2019-05-06T03:22:16.809Z,613.13
2019-05-06T03:24:47.476Z,705.17
2019-05-06T03:27:16.514Z,690.23
2019-05-06T03:29:45.541Z,818.47
2019-05-06T03:32:21.611Z,842.43
2019-05-06T03:35:01.215Z,911.63
2019-05-06T03:37:17.059Z,959.77
2019-05-06T03:39:46.556Z,999.90
2019-05-06T03:42:16.594Z,999.90
2019-05-06T03:44:47.588Z,939.80
2019-05-06T03:47:18.253Z,971.13
2019-05-06T03:49:50.083Z,838.97
2019-05-06T03:52:23.238Z,974.93
2019-05-06T03:54:53.636Z,999.90
2019-05-06T03:57:23.355Z,999.90
2019-05-06T03:59:54.877Z,999.90
2019-05-06T04:02:24.262Z,999.90
2019-05-06T04:08:24.134Z,818.70
2019-05-06T04:10:54.046Z,999.90
2019-05-06T04:13:23.321Z,999.90
2019-05-06T04:15:54.239Z,999.90
2019-05-06T04:21:43.640Z,999.90
2019-05-06T04:24:14.302Z,999.90
2019-05-06T04:26:46.417Z,999.90
2019-05-06T04:29:14.920Z,999.90
2019-05-06T04:31:44.040Z,999.90
2019-05-06T04:34:18.230Z,999.90
2019-05-06T04:36:44.160Z,999.90
2019-05-06T04:39:13.415Z,999.90
2019-05-06T04:41:43.310Z,999.90
2019-05-06T04:44:13.861Z,999.90
2019-05-06T04:46:45.589Z,999.90
2019-05-06T04:49:16.241Z,999.90
2019-05-06T04:51:45.233Z,999.90
2019-05-06T04:54:14.260Z,999.90
2019-05-06T04:56:43.918Z,999.90
2019-05-06T04:59:14.100Z,999.90
2019-05-06T05:01:45.559Z,999.90
2019-05-06T05:04:24.570Z,999.90
2019-05-06T05:06:45.268Z,999.90
2019-05-06T05:09:17.151Z,999.90
2019-05-06T05:11:46.641Z,999.90
2019-05-06T05:14:21.677Z,999.90
2019-05-06T05:16:49.746Z,999.90
2019-05-06T05:19:18.844Z,999.90
2019-05-06T05:21:52.790Z,999.90
2019-05-06T05:24:23.535Z,999.90
2019-05-06T05:26:52.716Z,999.90
2019-05-06T05:29:22.867Z,999.90
2019-05-06T05:31:52.977Z,999.90
2019-05-06T05:34:22.586Z,999.90
2019-05-06T05:36:52.781Z,999.90
2019-05-06T05:39:22.338Z,999.90
2019-05-06T05:41:52.931Z,999.90
2019-05-06T05:44:23.613Z,999.90
2019-05-06T05:46:52.660Z,999.90
2019-05-06T05:49:24.573Z,999.90
2019-05-06T05:51:53.647Z,999.90
2019-05-06T05:54:23.136Z,999.90
2019-05-06T05:56:52.932Z,999.90
2019-05-06T05:59:23.238Z,999.90
2019-05-06T06:01:53.069Z,999.90
2019-05-06T06:04:22.496Z,999.90
2019-05-06T06:06:52.042Z,999.90
2019-05-06T06:09:22.974Z,999.90
2019-05-06T06:11:53.732Z,999.90
2019-05-06T06:14:24.410Z,999.90
2019-05-06T06:16:55.340Z,999.90
2019-05-06T06:19:26.204Z,999.90
2019-05-06T06:21:56.951Z,991.60
2019-05-06T06:24:27.969Z,999.90
2019-05-06T06:26:57.005Z,924.63
2019-05-06T06:29:26.014Z,874.13
2019-05-06T06:31:56.681Z,999.90
2019-05-06T06:34:27.327Z,999.90
2019-05-06T06:36:58.001Z,868.63
2019-05-06T06:39:28.724Z,999.90
2019-05-06T06:41:57.742Z,871.67
2019-05-06T06:44:28.394Z,999.90
2019-05-06T06:46:57.481Z,997.33
2019-05-06T06:49:26.561Z,999.90
2019-05-06T06:51:55.593Z,999.90
2019-05-06T06:54:24.615Z,999.90
2019-05-06T06:57:05.249Z,999.90
2019-05-06T06:59:27.697Z,999.90
2019-05-06T07:01:58.634Z,889.70
2019-05-06T07:04:29.657Z,946.43
2019-05-06T07:07:00.033Z,867.20
2019-05-06T07:09:29.777Z,876.60
2019-05-06T07:11:59.006Z,854.40
2019-05-06T07:14:28.058Z,823.17
2019-05-06T07:16:57.091Z,847.67
2019-05-06T07:19:27.737Z,788.47
2019-05-06T07:21:58.363Z,777.20
2019-05-06T07:24:28.340Z,843.03
2019-05-06T07:26:59.017Z,727.27
2019-05-06T07:29:28.025Z,775.50
2019-05-06T07:31:57.088Z,837.10
2019-05-06T07:34:26.090Z,869.30
2019-05-06T07:36:55.198Z,806.93
2019-05-06T07:39:24.300Z,703.83
2019-05-06T07:41:55.046Z,999.90
2019-05-06T07:44:25.693Z,999.90
2019-05-06T07:46:56.355Z,999.90
2019-05-06T07:49:25.452Z,893.77
2019-05-06T07:51:54.492Z,719.13
2019-05-06T07:54:23.556Z,997.73
2019-05-06T07:56:52.783Z,974.60
2019-05-06T07:59:22.441Z,794.63
2019-05-06T08:01:53.859Z,754.67
2019-05-06T08:04:23.058Z,957.30
2019-05-06T08:06:52.352Z,801.93
2019-05-06T08:09:22.152Z,721.80
2019-05-06T08:11:53.031Z,999.90
2019-05-06T08:14:22.619Z,833.87
2019-05-06T08:16:53.438Z,826.40
2019-05-06T08:19:22.853Z,999.90
2019-05-06T08:21:53.473Z,776.20
2019-05-06T08:24:22.803Z,804.73
2019-05-06T08:26:52.232Z,812.20
2019-05-06T08:29:22.478Z,999.90
2019-05-06T08:31:52.456Z,999.90
2019-05-06T08:34:22.576Z,999.90
2019-05-06T08:36:53.467Z,979.40
2019-05-06T08:39:22.512Z,999.90
2019-05-06T08:41:52.857Z,776.40
2019-05-06T08:44:22.491Z,733.67
2019-05-06T08:46:53.235Z,967.60
2019-05-06T08:49:22.616Z,999.90
2019-05-06T08:51:53.326Z,764.03
2019-05-06T08:54:24.026Z,818.13
2019-05-06T08:56:53.043Z,999.90
2019-05-06T08:59:24.068Z,953.27
2019-05-06T09:01:54.449Z,848.97
2019-05-06T09:04:24.468Z,940.30
2019-05-06T09:06:53.722Z,815.97
2019-05-06T09:09:23.718Z,773.93
2019-05-06T09:11:53.475Z,849.93
2019-05-06T09:14:23.365Z,731.37
2019-05-06T09:16:53.875Z,999.90
2019-05-06T09:19:23.535Z,808.10
2019-05-06T09:21:53.342Z,724.57
2019-05-06T09:24:23.157Z,872.00
2019-05-06T09:26:53.974Z,728.70
2019-05-06T09:29:24.649Z,776.10
2019-05-06T09:31:55.304Z,776.37
2019-05-06T09:34:25.986Z,836.30
2019-05-06T09:36:56.628Z,999.90
2019-05-06T09:39:25.762Z,782.03
2019-05-06T09:41:58.001Z,790.37
2019-05-06T09:44:25.430Z,994.50
2019-05-06T09:46:55.256Z,912.70
2019-05-06T09:49:25.923Z,822.20
2019-05-06T09:51:54.995Z,737.83
2019-05-06T09:54:25.664Z,793.70
2019-05-06T09:56:56.321Z,999.90
2019-05-06T09:59:26.462Z,999.90
2019-05-06T10:01:55.571Z,999.90
2019-05-06T10:04:24.608Z,963.13
2019-05-06T10:06:57.327Z,724.93
2019-05-06T10:09:25.079Z,773.53
2019-05-06T10:11:54.294Z,855.10
2019-05-06T10:14:24.438Z,999.90
2019-05-06T10:16:53.526Z,825.67
2019-05-06T10:19:22.781Z,775.17
2019-05-06T10:21:53.093Z,954.17
2019-05-06T10:24:23.368Z,995.77
2019-05-06T10:26:54.105Z,833.60
2019-05-06T10:29:24.940Z,999.90
2019-05-06T10:31:55.665Z,885.60
2019-05-06T10:34:24.715Z,999.90
2019-05-06T10:37:11.488Z,898.63
2019-05-06T10:39:29.165Z,852.83
2019-05-06T10:42:01.394Z,999.90
2019-05-06T10:44:32.969Z,787.87
2019-05-06T10:47:02.920Z,992.40
2019-05-06T10:49:33.701Z,763.60
2019-05-06T10:52:04.535Z,787.58
2019-05-06T10:54:33.727Z,777.20
2019-05-06T10:57:04.433Z,796.60
2019-05-06T10:59:33.445Z,868.70
2019-05-06T11:02:05.428Z,794.93
2019-05-06T11:04:34.792Z,961.27
2019-05-06T11:07:04.156Z,999.90
2019-05-06T11:09:33.401Z,864.07
2019-05-06T11:12:03.254Z,890.60
2019-05-06T11:14:33.053Z,935.57
2019-05-06T11:17:04.959Z,999.90
2019-05-06T11:19:33.211Z,999.90
2019-05-06T11:22:03.578Z,866.20
2019-05-06T11:24:32.860Z,775.97
2019-05-06T11:27:03.373Z,768.67
2019-05-06T11:29:36.734Z,999.90
2019-05-06T11:32:06.552Z,815.60
2019-05-06T11:34:37.195Z,838.93
2019-05-06T11:37:07.878Z,802.40
2019-05-06T11:39:36.939Z,998.90
2019-05-06T11:42:23.825Z,895.83
2019-05-06T11:44:36.614Z,994.55
2019-05-06T11:47:05.660Z,821.48
2019-05-06T11:49:34.650Z,974.23
2019-05-06T11:52:04.034Z,806.33
2019-05-06T11:54:33.831Z,999.90
2019-05-06T11:57:04.170Z,999.90
2019-05-06T11:59:33.164Z,999.90
2019-05-06T12:02:03.822Z,946.93
2019-05-06T12:04:33.053Z,808.70
2019-05-06T12:07:10.182Z,780.17
2019-05-06T12:09:33.354Z,773.67
2019-05-06T12:12:03.341Z,891.23
2019-05-06T12:14:32.454Z,999.90
2019-05-06T12:17:02.274Z,814.33
2019-05-06T12:19:32.561Z,888.73
2019-05-06T12:22:01.691Z,917.13
2019-05-06T12:24:30.753Z,999.90
2019-05-06T12:26:59.831Z,853.43
2019-05-06T12:29:28.870Z,907.83
2019-05-06T12:31:59.546Z,999.90
2019-05-06T12:34:28.501Z,823.23
2019-05-06T12:36:59.150Z,757.73
2019-05-06T12:39:28.780Z,794.00
2019-05-06T12:41:59.395Z,782.70
2019-05-06T12:44:28.804Z,742.00
2019-05-06T12:47:00.121Z,785.20
2019-05-06T12:49:29.207Z,999.90
2019-05-06T12:51:58.243Z,804.20
2019-05-06T12:54:27.438Z,879.03
2019-05-06T12:56:57.717Z,999.90
2019-05-06T12:59:27.719Z,999.90
2019-05-06T13:01:56.746Z,783.37
2019-05-06T13:04:46.087Z,771.00
2019-05-06T13:06:56.580Z,817.07
2019-05-06T13:09:25.693Z,999.90
2019-05-06T13:11:54.677Z,884.93
2019-05-06T13:14:23.698Z,859.10
2019-05-06T13:16:53.283Z,763.17
2019-05-06T13:19:22.870Z,999.90
2019-05-06T13:21:52.086Z,919.70
2019-05-06T13:24:22.843Z,986.67
2019-05-06T13:26:52.768Z,839.57
2019-05-06T13:29:23.890Z,893.57
2019-05-06T13:31:53.889Z,854.13
2019-05-06T13:34:23.405Z,999.90
2019-05-06T13:36:53.474Z,999.90
2019-05-06T13:39:23.731Z,885.00
2019-05-06T13:41:53.058Z,958.03
2019-05-06T13:44:22.774Z,992.03
2019-05-06T13:46:53.251Z,806.43
2019-05-06T13:49:24.469Z,844.47
2019-05-06T13:51:55.141Z,780.03
2019-05-06T13:54:24.160Z,854.23
2019-05-06T13:56:53.194Z,918.80
2019-05-06T13:59:22.219Z,999.90
2019-05-06T14:01:52.956Z,883.73
2019-05-06T14:04:24.107Z,792.77
2019-05-06T14:06:52.991Z,770.27
2019-05-06T14:09:29.519Z,850.60
2019-05-06T14:12:18.431Z,863.73
2019-05-06T14:14:47.531Z,859.73
2019-05-06T14:17:16.555Z,999.90
2019-05-06T14:19:45.576Z,909.00
2019-05-06T14:22:14.641Z,882.67
2019-05-06T14:24:45.285Z,935.90
2019-05-06T14:27:15.967Z,836.30
2019-05-06T14:29:46.630Z,886.00
2019-05-06T14:32:15.681Z,999.90
2019-05-06T14:34:44.783Z,882.83
2019-05-06T14:37:13.823Z,976.30
2019-05-06T14:39:52.667Z,873.67
2019-05-06T14:42:15.133Z,999.90
2019-05-06T14:44:44.156Z,953.03
2019-05-06T14:47:14.816Z,831.20
2019-05-06T14:49:43.813Z,831.47
2019-05-06T14:52:13.308Z,826.73
2019-05-06T14:54:44.122Z,870.70
2019-05-06T14:57:13.948Z,999.90
2019-05-06T14:59:42.972Z,965.17
2019-05-06T15:02:13.297Z,999.90
2019-05-06T15:04:43.400Z,999.90
2019-05-06T15:07:12.924Z,819.80
2019-05-06T15:09:55.815Z,999.90
2019-05-06T15:12:13.321Z,980.43
2019-05-06T15:14:42.688Z,970.00
2019-05-06T15:17:14.194Z,864.00
2019-05-06T15:19:43.028Z,898.37
2019-05-06T15:22:12.968Z,897.07
2019-05-06T15:24:42.788Z,874.67
2019-05-06T15:27:12.039Z,845.60
2019-05-06T15:29:42.828Z,835.67
2019-05-06T15:32:13.490Z,881.43
2019-05-06T15:34:44.150Z,997.73
2019-05-06T15:37:14.819Z,798.67
2019-05-06T15:39:43.925Z,801.37
2019-05-06T15:42:13.016Z,813.27
2019-05-06T15:44:42.516Z,922.63
2019-05-06T15:47:13.185Z,820.00
2019-05-06T15:49:42.354Z,861.40
2019-05-06T15:55:28.630Z,928.87
2019-05-06T15:57:57.685Z,859.00
2019-05-06T16:00:26.792Z,999.90
2019-05-06T16:02:55.836Z,925.60
2019-05-06T16:05:26.620Z,853.67
2019-05-06T16:07:55.533Z,822.13
2019-05-06T16:10:24.583Z,999.90
2019-05-06T16:12:53.724Z,975.17
2019-05-06T16:15:24.834Z,829.47
2019-05-06T16:17:53.424Z,949.23
2019-05-06T16:20:22.430Z,809.53
2019-05-06T16:22:55.375Z,818.53
2019-05-06T16:25:24.466Z,842.80
2019-05-06T16:27:55.137Z,814.53
2019-05-06T16:30:24.628Z,799.37
2019-05-06T16:32:53.900Z,790.17
2019-05-06T16:35:23.103Z,791.23
2019-05-06T16:37:52.145Z,866.73
2019-05-06T16:40:22.942Z,846.10
2019-05-06T16:42:54.407Z,916.17
2019-05-06T16:45:23.872Z,861.83
2019-05-06T16:47:53.008Z,999.90
2019-05-06T16:50:23.699Z,974.93
2019-05-06T16:52:52.957Z,960.03
2019-05-06T16:55:24.294Z,933.90
2019-05-06T16:57:55.263Z,917.97
2019-05-06T17:00:26.061Z,908.13
2019-05-06T17:02:59.965Z,999.90
2019-05-06T17:05:29.105Z,957.17
2019-05-06T17:07:59.477Z,950.20
2019-05-06T17:10:28.485Z,992.87
2019-05-06T17:12:57.580Z,999.90
2019-05-06T17:15:26.659Z,940.13
2019-05-06T17:17:55.699Z,950.57
2019-05-06T17:20:24.720Z,955.43
2019-05-06T17:22:53.785Z,999.90
2019-05-06T17:25:22.828Z,999.90
2019-05-06T17:27:52.815Z,999.90
2019-05-06T17:30:23.787Z,999.90
2019-05-06T17:32:54.454Z,999.90
2019-05-06T17:35:23.521Z,999.90
2019-05-06T17:37:54.136Z,999.90
2019-05-06T17:40:23.431Z,999.90
2019-05-06T17:42:53.335Z,993.73
2019-05-06T17:45:24.354Z,999.90
2019-05-06T17:47:54.821Z,999.90
2019-05-06T17:50:23.940Z,999.90
2019-05-06T17:52:53.013Z,999.90
2019-05-06T17:55:22.548Z,999.90
2019-05-06T17:57:52.912Z,999.90
2019-05-06T18:00:22.566Z,999.90
2019-05-06T18:02:52.686Z,999.90
2019-05-06T18:05:22.828Z,999.90
2019-05-06T18:07:52.042Z,999.90
2019-05-06T18:10:22.139Z,999.90
2019-05-06T18:12:53.118Z,999.90
2019-05-06T18:15:22.603Z,999.90
2019-05-06T18:17:52.490Z,999.90
2019-05-06T18:20:22.174Z,999.90
2019-05-06T18:22:52.462Z,999.90
2019-05-06T18:25:23.013Z,999.90
2019-05-06T18:27:52.642Z,999.90
2019-05-06T18:30:28.298Z,999.90
2019-05-06T18:32:52.357Z,999.90
2019-05-06T18:35:23.058Z,999.90
2019-05-06T18:37:52.295Z,999.90
2019-05-06T18:40:23.238Z,999.90
2019-05-06T18:42:52.586Z,999.90
2019-05-06T18:45:22.127Z,999.90
2019-05-06T18:47:53.173Z,999.90
2019-05-06T18:50:22.114Z,999.90
2019-05-06T18:52:52.949Z,999.90
2019-05-06T18:55:22.494Z,999.90
2019-05-06T18:57:52.811Z,999.90
2019-05-06T19:00:22.618Z,999.90
2019-05-06T19:02:52.342Z,999.90
2019-05-06T19:05:26.775Z,999.90
2019-05-06T19:07:54.596Z,999.90
2019-05-06T19:10:25.295Z,999.90
2019-05-06T19:12:54.411Z,999.90
2019-05-06T19:15:25.715Z,999.90
2019-05-06T19:17:55.160Z,999.90
2019-05-06T19:20:24.572Z,999.90
2019-05-06T19:22:53.841Z,999.90
2019-05-06T19:25:23.779Z,999.90
2019-05-06T19:27:53.622Z,999.90
2019-05-06T19:30:22.704Z,999.90
2019-05-06T19:32:53.090Z,999.90
2019-05-06T19:35:22.329Z,999.90
2019-05-06T19:37:51.363Z,999.90
2019-05-06T19:40:22.792Z,999.90
2019-05-06T19:42:53.178Z,991.40
2019-05-06T19:45:22.606Z,999.90
2019-05-06T19:47:53.014Z,999.90
2019-05-06T19:50:25.689Z,999.90
2019-05-06T19:52:52.981Z,999.90
2019-05-06T19:55:23.054Z,999.90
2019-05-06T19:57:52.697Z,999.90
2019-05-06T20:00:22.830Z,999.90
2019-05-06T20:02:52.213Z,998.63
2019-05-06T20:05:23.039Z,999.90
2019-05-06T20:07:53.739Z,999.90
2019-05-06T20:10:24.386Z,999.90
2019-05-06T20:13:01.704Z,999.90
2019-05-06T20:15:28.341Z,999.90
2019-05-06T20:17:57.614Z,999.90
2019-05-06T20:20:26.631Z,999.90
2019-05-06T20:22:55.649Z,999.90
2019-05-06T20:25:24.711Z,999.90
2019-05-06T20:27:53.748Z,999.90
2019-05-06T20:30:22.738Z,999.90
2019-05-06T20:32:52.293Z,999.90
2019-05-06T20:35:22.380Z,999.90
2019-05-06T20:37:53.375Z,999.90
2019-05-06T20:40:23.657Z,999.90
2019-05-06T20:42:52.712Z,999.90
2019-05-06T20:45:22.393Z,999.90
2019-05-06T20:47:52.491Z,999.90
2019-05-06T20:50:22.566Z,999.90
2019-05-06T20:52:52.096Z,999.90
2019-05-06T20:55:22.898Z,999.90
2019-05-06T20:57:52.929Z,999.90
2019-05-06T21:00:22.516Z,999.90
2019-05-06T21:02:53.473Z,999.90
2019-05-06T21:05:22.890Z,799.57
2019-05-06T21:07:52.597Z,999.90
2019-05-06T21:10:22.866Z,999.90
2019-05-06T21:12:53.202Z,999.90
2019-05-06T21:15:23.090Z,999.90
2019-05-06T21:17:52.119Z,999.90
2019-05-06T21:20:21.298Z,999.90
2019-05-06T21:22:52.631Z,999.90
2019-05-06T21:25:22.584Z,999.90
2019-05-06T21:27:53.205Z,999.90
2019-05-06T21:30:22.348Z,999.90
2019-05-06T21:32:52.488Z,999.90
2019-05-06T21:35:22.226Z,999.90
2019-05-06T21:37:52.966Z,999.90
2019-05-06T21:40:22.133Z,999.90
2019-05-06T21:42:51.165Z,999.90
2019-05-06T21:45:22.118Z,999.90
2019-05-06T21:47:52.864Z,999.90
2019-05-06T21:50:22.797Z,999.90
2019-05-06T21:52:51.965Z,999.90
2019-05-06T21:55:41.823Z,999.90
2019-05-06T21:58:12.447Z,999.90
2019-05-06T22:00:43.597Z,999.90
2019-05-06T22:03:13.547Z,999.90
2019-05-06T22:05:42.676Z,999.90
2019-05-06T22:08:12.847Z,999.90
2019-05-06T22:10:42.364Z,999.90
2019-05-06T22:13:12.585Z,999.90
2019-05-06T22:15:43.230Z,999.90
2019-05-06T22:18:12.671Z,999.90
2019-05-06T22:20:43.413Z,999.90
2019-05-06T22:23:14.515Z,999.90
2019-05-06T22:25:43.134Z,999.90
2019-05-06T22:28:12.210Z,999.90
2019-05-06T22:30:42.555Z,999.90
2019-05-06T22:33:12.627Z,999.90
2019-05-06T22:35:43.049Z,999.90
2019-05-06T22:38:12.408Z,999.90
2019-05-06T22:40:42.505Z,999.90
2019-05-06T22:43:12.294Z,999.90
2019-05-06T22:45:42.577Z,999.90
2019-05-06T22:48:12.089Z,999.90
2019-05-06T22:50:42.443Z,999.90
2019-05-06T22:53:13.066Z,999.90
2019-05-06T22:55:42.783Z,999.90
2019-05-06T22:58:12.059Z,999.90
2019-05-06T23:00:42.789Z,999.90
2019-05-06T23:03:13.503Z,999.90
2019-05-06T23:05:42.539Z,999.90
2019-05-06T23:08:12.260Z,999.90
2019-05-06T23:10:42.508Z,999.90
2019-05-06T23:13:12.458Z,999.90
2019-05-06T23:15:42.067Z,999.90
2019-05-06T23:18:11.280Z,999.90
2019-05-06T23:20:40.464Z,999.90
2019-05-06T23:23:09.509Z,999.90
2019-05-06T23:25:38.533Z,999.90
2019-05-06T23:28:07.647Z,999.90
2019-05-06T23:30:36.825Z,999.90
2019-05-06T23:33:05.878Z,999.90
2019-05-06T23:35:34.925Z,999.90
2019-05-06T23:38:05.501Z,999.90
2019-05-06T23:40:37.023Z,999.90
2019-05-06T23:43:07.723Z,999.90
2019-05-06T23:45:38.305Z,999.90
2019-05-06T23:48:08.885Z,999.90
2019-05-06T23:50:39.662Z,999.90
2019-05-06T23:53:12.233Z,999.90
2019-05-06T23:55:44.151Z,999.90
2019-05-06T23:58:14.703Z,999.90
